createdAt,value
2019-04-20T00:22:11.977Z,16.20
2019-04-20T00:52:31.547Z,15.80
2019-04-20T01:22:25.630Z,15.30
2019-04-20T01:52:43.987Z,15.30
2019-04-20T02:22:52.877Z,14.80
2019-04-20T02:53:32.484Z,14.40
2019-04-20T03:23:26.817Z,14.20
2019-04-20T03:53:13.017Z,13.80
2019-04-20T04:23:16.713Z,13.40
2019-04-20T04:53:12.059Z,13.30
2019-04-20T05:23:28.287Z,13.20
2019-04-20T05:53:44.360Z,12.60
2019-04-20T06:23:53.433Z,14.10
2019-04-20T06:53:51.351Z,15.00
2019-04-20T07:24:04.985Z,15.80
2019-04-20T07:54:14.799Z,16.30
2019-04-20T08:24:08.599Z,16.70
2019-04-20T08:54:14.196Z,17.50
2019-04-20T09:24:30.536Z,18.70
2019-04-20T09:54:29.991Z,20.00
2019-04-20T10:24:12.712Z,21.20
2019-04-20T10:54:16.407Z,22.10
2019-04-20T11:24:20.496Z,23.10
2019-04-20T11:54:26.427Z,23.10
2019-04-20T12:24:29.404Z,23.80
2019-04-20T12:54:36.508Z,24.40
2019-04-20T13:24:41.021Z,25.70
2019-04-20T13:54:47.456Z,26.60
2019-04-20T14:24:53.245Z,27.70
2019-04-20T14:54:57.474Z,28.30
2019-04-20T15:25:03.816Z,28.10
2019-04-20T15:55:15.765Z,25.90
2019-04-20T16:25:14.225Z,26.10
2019-04-20T16:55:18.738Z,24.00
2019-04-20T17:25:25.781Z,22.30
2019-04-20T17:55:37.000Z,21.80
2019-04-20T18:26:01.518Z,20.80
2019-04-20T18:55:46.819Z,20.10
2019-04-20T19:25:47.731Z,19.70
2019-04-20T19:56:04.077Z,19.70
2019-04-20T20:25:58.844Z,19.10
2019-04-20T20:56:12.014Z,18.90
2019-04-20T21:26:12.869Z,18.50
2019-04-20T21:56:12.253Z,17.90
2019-04-20T22:26:29.686Z,16.50
2019-04-20T22:56:39.477Z,16.10
2019-04-20T23:26:35.972Z,16.20
2019-04-20T23:56:35.432Z,15.80
